Quata, Brazil
Current Conditions -  °F | °C
As of 5:00 AM on Saturday 25 Oct 2014 (Local Time) from SBDN Reporting Station
Light Rain Light Rain  
Wind Chill: 70°   Ceiling: Unl
Heat Index: 70°   Visibility: 6mi
Dew Point: 66°   Wind: 6mph
Humidity: 88%   Direction: 20°NNE
Pressure: 29.88"   Gusts: NA
Location:  22.25°S, 50.7°W
Report Text: SBDN 250700Z 02005KT 9999 -RA NSC 21/19 Q1012
Loading
Personal Weather Stations






























Interactive Weather Map
Tropical Storm Tracking
New forecast layout! Learn more

10-Day Weather Forecast

Advertisements
Track Severe Weather on mobile